Terminal Aerodrome Forecast
Issued by NWS Charleston, WV

Current Version | Previous Version | Text Only | Print | Product List | Glossary Off
Versions: 1 2 3 4 5 6 7 8 9 10 11 12 13 14 15 16 17 18

061
FTUS41 KRLX 092341
TAFPKB
TAF
KPKB 092341Z 1000/1024 26009G17KT 5SM -SHSN OVC015
     FM100200 26009G15KT P6SM VCSH OVC015
     FM101400 27008G13KT 6SM -SHSN OVC020
     FM101900 25011G17KT 6SM -SHSN BKN025
     FM102200 26011G17KT P6SM VCSH BKN025=

USA.gov is the U.S. government's official web portal to all federal, state and local government web resources and services.